Flight Track Log - Related Links

Times and Time Zones

All times are in EDT time to prevent confusion due to time zone crossing. See the AAL1805 flight status page for this flight to view local times or setup timezone preferences in your user account.

Time Position Orientation Groundspeed Altitude Reporting Facility
EDT Latitude Longitude Course Direction KTS MPH feet Rate Location/Type
Mon 03:52:52 PM 38.8160 -77.0330 171° South 166 191 1,400  Level FlightAware ADS-B
Mon 03:53:17 PM 38.7960 -77.0310 176° South 197 227 1,900 1,636 Climbing FlightAware ADS-B
Mon 03:53:47 PM 38.7650 -77.0280 176° South 224 258 2,900 2,073 Climbing FlightAware ADS-B
Mon 03:54:12 PM 38.7380 -77.0250 175° South 243 280 3,800 1,950 Climbing FlightAware ADS-B
Mon 03:54:27 PM 38.7210 -77.0280 188° South 256 295 4,200 1,000 Climbing FlightAware ADS-B
Mon 03:54:42 PM 38.7080 -77.0380 211° Southwest 262 302 4,300 600 Climbing FlightAware ADS-B
Mon 03:54:57 PM 38.6940 -77.0560 225° Southwest 262 302 4,500 1,400 Climbing FlightAware ADS-B
Mon 03:55:12 PM 38.6860 -77.0740 240° Southwest 264 304 5,000 2,400 Climbing FlightAware ADS-B
Mon 03:55:37 PM 38.6790 -77.1140 257° West 271 312 6,100 2,727 Climbing FlightAware ADS-B
Mon 03:56:07 PM 38.6710 -77.1630 258° West 278 320 7,500 2,900 Climbing FlightAware ADS-B
Mon 03:56:37 PM 38.6640 -77.2080 259° West 280 322 9,000 2,509 Climbing FlightAware ADS-B
Mon 03:57:02 PM 38.6600 -77.2360 260° West 284 327 9,800 1,964 Climbing FlightAware ADS-B
Mon 03:57:32 PM 38.6430 -77.2950 250° West 311 358 10,800 1,938 Climbing FlightAware ADS-B
Mon 03:58:07 PM 38.6000 -77.3480 224° Southwest 348 400 11,900 2,550 Climbing FlightAware ADS-B
Mon 03:58:52 PM 38.5400 -77.4120 220° Southwest 365 420 14,200 3,000 Climbing FlightAware ADS-B
Mon 03:59:37 PM 38.4820 -77.4750 220° Southwest 373 429 16,400 2,824 Climbing FlightAware ADS-B
Mon 04:00:17 PM 38.4280 -77.5320 220° Southwest 384 442 18,200 2,682 Climbing FlightAware ADS-B
Mon 04:01:02 PM 38.3710 -77.6050 225° Southwest 392 451 20,200 2,541 Climbing FlightAware ADS-B
Mon 04:01:42 PM 38.3250 -77.6770 231° Southwest 399 459 21,800 2,188 Climbing FlightAware ADS-B
Mon 04:02:27 PM 38.2750 -77.7540 230° Southwest 407 468 23,300 2,118 Climbing FlightAware ADS-B
Mon 04:03:07 PM 38.2230 -77.8350 231° Southwest 416 479 24,800 2,250 Climbing FlightAware ADS-B
Mon 04:03:47 PM 38.1740 -77.9090 230° Southwest 416 479 26,300 2,118 Climbing FlightAware ADS-B
Mon 04:04:32 PM 38.1170 -77.9960 230° Southwest 419 482 27,800 1,765 Climbing FlightAware ADS-B
Mon 04:05:12 PM 38.0680 -78.0700 230° Southwest 423 487 28,800 1,553 Climbing FlightAware ADS-B
Mon 04:05:57 PM 38.0100 -78.1540 229° Southwest 425 489 30,000 847 Climbing FlightAware ADS-B
Mon 04:06:37 PM 37.9480 -78.2160 218° Southwest 427 491 30,000  Level FlightAware ADS-B
Mon 04:07:07 PM 37.9760 -78.1890 37° Northeast 429 494 30,000  Level FlightAware ADS-B
Mon 04:08:02 PM 37.8130 -78.3440 217° Southwest 426 490 30,000 867 Level FlightAware ADS-B
Mon 04:08:37 PM 37.7610 -78.3940 217° Southwest 415 478 31,300 2,118 Climbing FlightAware ADS-B
Mon 04:09:27 PM 37.6850 -78.4670 217° Southwest 402 463 33,000 1,133 Climbing FlightAware ADS-B
Mon 04:10:07 PM 37.6270 -78.5210 216° Southwest 402 463 33,000  Level FlightAware ADS-B
Mon 04:10:52 PM 37.5610 -78.5830 217° Southwest 403 464 33,000  Level FlightAware ADS-B
Mon 04:11:42 PM 37.4960 -78.6410 215° Southwest 403 464 33,000  Level FlightAware ADS-B
Mon 04:12:22 PM 37.4450 -78.6880 216° Southwest 403 464 33,000 2,000 Level FlightAware ADS-B
Mon 04:13:12 PM 37.3520 -78.7780 218° Southwest 400 460 36,000 1,800 Climbing FlightAware ADS-B
Mon 04:14:02 PM 37.2890 -78.8360 216° Southwest 400 460 36,000  Level FlightAware ADS-B
Mon 04:15:02 PM 37.1830 -78.9360 217° Southwest 36,000  Level FlightAware ADS-B
Mon 04:16:04 PM 37.1047 -79.0086 217° Southwest 416 479 36,000  Level Washington Center
Mon 04:17:05 PM 37.0125 -79.0931 216° Southwest 416 479 36,000  Level Washington Center
Mon 04:18:05 PM 36.9158 -79.1822 216° Southwest 411 473 36,000  Level Washington Center
Mon 04:19:05 PM 36.8258 -79.2686 218° Southwest 411 473 36,000  Level Washington Center
Mon 04:20:06 PM 36.7333 -79.3500 215° Southwest 411 473 36,000  Level Washington Center
Mon 04:21:04 PM 36.6431 -79.4336 217° Southwest 411 473 36,000  Level Washington Center
Mon 04:22:05 PM 36.5614 -79.5069 216° Southwest 411 473 36,000  Level Washington Center
Mon 04:23:55 PM 36.3808 -79.6678 216° Southwest 416 479 36,000  Level Atlanta Center
Mon 04:24:55 PM 36.2919 -79.7497 217° Southwest 416 479 36,000  Level Atlanta Center
Mon 04:25:55 PM 36.1989 -79.8344 216° Southwest 421 484 36,000  Level Atlanta Center
Mon 04:26:55 PM 36.1058 -79.9164 215° Southwest 421 484 36,000  Level Atlanta Center
Mon 04:27:55 PM 36.0183 -79.9850 212° Southwest 421 484 36,000  Level Atlanta Center
Mon 04:28:55 PM 35.9158 -80.0389 203° Southwest 414 476 36,000  Level Atlanta Center
Mon 04:29:55 PM 35.8072 -80.0931 202° Southwest 414 476 36,000  Level Atlanta Center
Mon 04:35:07 PM 35.2500 -80.3760 202° Southwest 418 481 36,000  Level FlightAware ADS-B
Mon 04:35:47 PM 35.1710 -80.4150 202° Southwest 418 481 36,000  Level FlightAware ADS-B
Mon 04:36:32 PM 35.0990 -80.4500 202° Southwest 413 475 36,000  Level FlightAware ADS-B
Mon 04:37:07 PM 35.0310 -80.4840 202° Southwest 413 475 36,000  Level FlightAware ADS-B
Mon 04:37:47 PM 34.9600 -80.5190 202° Southwest 413 475 36,000  Level FlightAware ADS-B
Mon 04:38:37 PM 34.8700 -80.5630 202° Southwest 411 473 36,000  Level FlightAware ADS-B
Mon 04:39:17 PM 34.7990 -80.5980 202° Southwest 410 472 36,000  Level FlightAware ADS-B
Mon 04:40:02 PM 34.7210 -80.6360 202° Southwest 407 468 36,000  Level FlightAware ADS-B
Mon 04:40:37 PM 34.6630 -80.6650 202° Southwest 403 464 36,000  Level FlightAware ADS-B
Mon 04:41:22 PM 34.5820 -80.7040 202° Southwest 397 457 36,000  Level FlightAware ADS-B
Mon 04:42:07 PM 34.5070 -80.7410 202° Southwest 394 453 36,000  Level FlightAware ADS-B
Mon 04:42:47 PM 34.4390 -80.7740 202° Southwest 393 452 36,000  Level FlightAware ADS-B
Mon 04:43:42 PM 34.3450 -80.8190 202° Southwest 390 449 36,000  Level FlightAware ADS-B
Mon 04:44:27 PM 34.2710 -80.8550 202° Southwest 390 449 36,000  Level FlightAware ADS-B
Mon 04:45:07 PM 34.2100 -80.8840 201° Southwest 390 449 36,000  Level FlightAware ADS-B
Mon 04:45:47 PM 34.1390 -80.9180 202° Southwest 393 452 36,000  Level FlightAware ADS-B
Mon 04:46:32 PM 34.0630 -80.9550 202° Southwest 396 456 36,000  Level FlightAware ADS-B
Mon 04:47:12 PM 33.9950 -80.9880 202° Southwest 397 457 36,000  Level FlightAware ADS-B
Mon 04:47:57 PM 33.9210 -81.0240 202° Southwest 398 458 36,000  Level FlightAware ADS-B
Mon 04:48:37 PM 33.8480 -81.0520 198° South 405 466 36,000  Level FlightAware ADS-B
Mon 04:49:17 PM 33.7730 -81.0610 186° South 412 474 36,000  Level FlightAware ADS-B
Mon 04:50:02 PM 33.6880 -81.0690 184° South 413 475 36,000  Level FlightAware ADS-B
Mon 04:50:42 PM 33.6140 -81.0750 184° South 413 475 36,000  Level FlightAware ADS-B
Mon 04:51:27 PM 33.5260 -81.0820 184° South 412 474 36,000  Level FlightAware ADS-B
Mon 04:52:07 PM 33.4500 -81.0890 184° South 411 473 36,000  Level FlightAware ADS-B
Mon 04:52:47 PM 33.3750 -81.0960 184° South 410 472 36,000  Level FlightAware ADS-B
Mon 04:53:32 PM 33.2890 -81.1030 184° South 409 471 36,000  Level FlightAware ADS-B
Mon 04:54:12 PM 33.2140 -81.1090 184° South 408 470 36,000  Level FlightAware ADS-B
Mon 04:54:52 PM 33.1390 -81.1160 184° South 407 468 36,000 282 Level FlightAware ADS-B
Mon 04:55:37 PM 33.0550 -81.1230 184° South 414 476 36,400 706 Climbing FlightAware ADS-B
Mon 04:56:17 PM 32.9770 -81.1290 184° South 418 481 37,000 900 Climbing FlightAware ADS-B
Mon 04:56:57 PM 32.9000 -81.1360 184° South 420 483 37,600 706 Climbing FlightAware ADS-B
Mon 04:57:42 PM 32.8120 -81.1430 184° South 426 490 38,000 282 Climbing FlightAware ADS-B
Mon 04:58:22 PM 32.7350 -81.1500 184° South 427 491 38,000  Level FlightAware ADS-B
Mon 04:59:07 PM 32.6460 -81.1570 184° South 419 482 38,000 324 Level FlightAware ADS-B
Mon 04:59:57 PM 32.7080 -81.1520 North 38,000 429 Level FlightAware ADS-B
Mon 05:01:27 PM 32.3820 -81.1800 184° South 413 475 39,000 480 Climbing FlightAware ADS-B
Mon 05:02:02 PM 32.3220 -81.1850 184° South 413 475 39,000  Level FlightAware ADS-B
Mon 05:02:42 PM 32.2570 -81.1900 184° South 413 475 39,000  Level FlightAware ADS-B
Mon 05:03:32 PM 32.1760 -81.1970 184° South 413 475 39,000  Level FlightAware ADS-B
Mon 05:04:12 PM 32.1120 -81.2020 184° South 413 475 39,000  Level FlightAware ADS-B
Mon 05:04:52 PM 32.0470 -81.2070 184° South 413 475 39,000  Level FlightAware ADS-B
Mon 05:05:32 PM 31.9820 -81.2130 184° South 413 475 39,000  Level FlightAware ADS-B
Mon 05:06:22 PM 31.9010 -81.2190 184° South 413 475 39,000  Level FlightAware ADS-B
Mon 05:07:02 PM 31.8360 -81.2250 184° South 413 475 39,000  Level FlightAware ADS-B
Mon 05:07:42 PM 31.7710 -81.2300 184° South 413 475 39,000  Level FlightAware ADS-B
Mon 05:08:22 PM 31.7070 -81.2350 184° South 413 475 39,000  Level FlightAware ADS-B
Mon 05:09:02 PM 31.6420 -81.2410 184° South 413 475 39,000  Level FlightAware ADS-B
Mon 05:09:52 PM 31.5610 -81.2470 184° South 413 475 39,000  Level FlightAware ADS-B
Mon 05:10:32 PM 31.4960 -81.2530 185° South 413 475 39,000  Level FlightAware ADS-B
Mon 05:11:12 PM 31.4310 -81.2580 184° South 413 475 39,000 896 Level FlightAware ADS-B
Mon 05:11:39 PM 31.1650 -81.1614 184° South 438 504 40,000 621 Climbing Jacksonville Center
Mon 05:12:39 PM 31.0458 -81.1442 173° South 443 510 39,900  Descending Jacksonville Center
Mon 05:13:39 PM 30.9244 -81.1297 174° South 443 510 40,000 50 Climbing Jacksonville Center
Mon 05:14:39 PM 30.8031 -81.1125 173° South 443 510 40,000  Level Jacksonville Center
Mon 05:15:39 PM 30.6797 -81.0978 174° South 443 510 40,000  Level Jacksonville Center
Mon 05:16:39 PM 30.5606 -81.0783 172° South 443 510 40,000 -50 Level Jacksonville Center
Mon 05:17:39 PM 30.4392 -81.0639 174° South 443 510 39,900 -50 Descending Jacksonville Center
Mon 05:18:39 PM 30.3178 -81.0444 172° South 443 510 39,900  Level Jacksonville Center
Mon 05:19:39 PM 30.1861 -81.0303 175° South 443 510 39,900  Level Jacksonville Center
Mon 05:20:39 PM 30.0647 -81.0108 172° South 443 510 39,900 15 Level Jacksonville Center
Mon 05:26:07 PM 29.4220 -80.9260 172° South 439 505 40,000 16 Climbing FlightAware ADS-B
Mon 05:26:47 PM 29.3440 -80.9150 173° South 441 507 40,000  Level FlightAware ADS-B
Mon 05:27:37 PM 29.2360 -80.9010 174° South 435 501 40,000  Level FlightAware ADS-B
Mon 05:28:17 PM 29.1540 -80.8900 173° South 438 504 40,000  Level FlightAware ADS-B
Mon 05:29:17 PM 29.0400 -80.8630 168° South 449 517 40,000  Level FlightAware ADS-B
Mon 05:29:57 PM 28.9470 -80.8340 165° South 450 518 40,000  Level FlightAware ADS-B
Mon 05:30:37 PM 28.8670 -80.8100 165° South 449 517 40,000  Level FlightAware ADS-B
Mon 05:31:22 PM 28.7740 -80.7810 165° South 448 516 40,000  Level FlightAware ADS-B
Mon 05:32:02 PM 28.6930 -80.7560 165° South 449 517 40,000  Level FlightAware ADS-B
Mon 05:32:42 PM 28.6100 -80.7310 165° South 448 516 40,000  Level FlightAware ADS-B
Mon 05:33:27 PM 28.5190 -80.7040 165° South 446 513 40,000  Level FlightAware ADS-B
Mon 05:34:07 PM 28.4370 -80.6780 164° South 453 521 40,000  Level FlightAware ADS-B
Mon 05:34:52 PM 28.3510 -80.6520 165° South 452 520 40,000  Level FlightAware ADS-B
Mon 05:35:32 PM 28.2680 -80.6270 165° South 453 521 40,000  Level FlightAware ADS-B
Mon 05:36:17 PM 28.1770 -80.5990 165° South 451 519 40,000  Level FlightAware ADS-B
Mon 05:36:57 PM 28.0950 -80.5750 166° South 451 519 40,000  Level FlightAware ADS-B
Mon 05:37:37 PM 28.0130 -80.5500 165° South 451 519 40,000 -71 Level FlightAware ADS-B
Mon 05:38:22 PM 27.9240 -80.5230 165° South 447 514 39,900 -1,200 Descending FlightAware ADS-B
Mon 05:39:02 PM 27.8400 -80.4980 165° South 447 514 38,300 -2,550 Descending FlightAware ADS-B
Mon 05:39:42 PM 27.7640 -80.4750 165° South 447 514 36,500 -2,894 Descending FlightAware ADS-B
Mon 05:40:27 PM 27.6700 -80.4470 165° South 451 519 34,200 -2,021 Descending FlightAware ADS-B
Mon 05:41:17 PM 27.5760 -80.4190 165° South 451 519 33,300 -2,211 Descending FlightAware ADS-B
Mon 05:42:02 PM 27.4710 -80.3870 165° South 448 516 30,700 -2,824 Descending FlightAware ADS-B
Mon 05:42:42 PM 27.3960 -80.3650 165° South 432 497 29,300 -1,765 Descending FlightAware ADS-B
Mon 05:43:27 PM 27.3090 -80.3380 165° South 438 504 28,200 -1,800 Descending FlightAware ADS-B
Mon 05:44:12 PM 27.2210 -80.3040 161° South 429 494 26,600 -2,259 Descending FlightAware ADS-B
Mon 05:44:52 PM 27.1470 -80.2740 160° South 427 491 25,000 -2,325 Descending FlightAware ADS-B
Mon 05:45:32 PM 27.0710 -80.2440 161° South 426 490 23,500 -2,047 Descending FlightAware ADS-B
Mon 05:46:17 PM 26.9890 -80.2110 160° South 409 471 22,100 -1,906 Descending FlightAware ADS-B
Mon 05:46:57 PM 26.9190 -80.1830 160° South 392 451 20,800 -1,950 Descending FlightAware ADS-B
Mon 05:47:37 PM 26.8500 -80.1540 159° South 394 453 19,500 -1,906 Descending FlightAware ADS-B
Mon 05:48:22 PM 26.7730 -80.1240 161° South 377 434 18,100 -1,875 Descending FlightAware ADS-B
Mon 05:48:57 PM 26.7130 -80.1000 160° South 378 435 17,000 -1,835 Descending FlightAware ADS-B
Mon 05:49:47 PM 26.6300 -80.0780 167° South 359 413 15,500 -1,733 Descending FlightAware ADS-B
Mon 05:50:27 PM 26.5650 -80.0670 171° South 355 409 14,400 -1,482 Descending FlightAware ADS-B
Mon 05:51:12 PM 26.4920 -80.0540 171° South 329 379 13,400 -1,059 Descending FlightAware ADS-B
Mon 05:51:52 PM 26.4340 -80.0440 171° South 306 352 12,900 -375 Descending FlightAware ADS-B
Mon 05:52:32 PM 26.3760 -80.0340 171° South 307 353 12,900 71 Level FlightAware ADS-B
Mon 05:53:17 PM 26.3160 -80.0240 172° South 294 338 13,000  Climbing FlightAware ADS-B
Mon 05:53:52 PM 26.2650 -80.0160 172° South 306 352 12,900 -71 Descending FlightAware ADS-B
Mon 05:54:42 PM 26.1930 -80.0300 190° South 299 344 12,900 -333 Level FlightAware ADS-B
Mon 05:55:22 PM 26.1400 -80.0460 195° South 297 342 12,400 -1,275 Descending FlightAware ADS-B
Mon 05:56:02 PM 26.0810 -80.0620 194° South 299 344 11,200 -1,694 Descending FlightAware ADS-B
Mon 05:56:47 PM 26.0180 -80.0800 194° South 296 341 10,000 -1,543 Descending FlightAware ADS-B
Mon 05:57:12 PM 25.9860 -80.0890 194° South 291 335 9,400 -1,200 Descending FlightAware ADS-B
Mon 05:57:27 PM 25.9670 -80.0970 201° Southwest 280 322 9,200 -1,000 Descending FlightAware ADS-B
Mon 05:57:42 PM 25.9540 -80.1110 224° Southwest 277 319 8,900 -1,467 Descending FlightAware ADS-B
Mon 05:58:12 PM 25.9320 -80.1490 237° Southwest 277 319 8,100 -1,091 Descending FlightAware ADS-B
Mon 05:58:37 PM 25.9180 -80.1780 242° Southwest 262 302 7,900 -218 Descending FlightAware ADS-B
Mon 05:59:07 PM 25.9050 -80.2160 249° West 253 291 7,900 -150 Level FlightAware ADS-B
Mon 05:59:17 PM 25.9030 -80.2290 260° West 247 284 7,800 -1,500 Descending FlightAware ADS-B
Mon 05:59:47 PM 25.9050 -80.2670 273° West 255 293 6,900 -1,900 Descending FlightAware ADS-B
Mon 06:00:17 PM 25.9070 -80.3050 273° West 262 302 5,900 -1,800 Descending FlightAware ADS-B
Mon 06:00:47 PM 25.9090 -80.3420 273° West 268 308 5,100 -1,745 Descending FlightAware ADS-B
Mon 06:01:12 PM 25.9120 -80.3790 275° West 276 318 4,300 -1,309 Descending FlightAware ADS-B
Mon 06:01:42 PM 25.9150 -80.4220 274° West 259 298 3,900 -840 Descending FlightAware ADS-B
Mon 06:02:02 PM 25.9170 -80.4480 275° West 242 278 3,600 -600 Descending FlightAware ADS-B
Mon 06:02:22 PM 25.9110 -80.4700 253° West 220 253 3,500 -514 Descending FlightAware ADS-B
Mon 06:02:37 PM 25.8980 -80.4790 212° Southwest 199 229 3,300 -667 Descending FlightAware ADS-B
Mon 06:03:07 PM 25.8770 -80.4690 157° South 177 204 3,000 -450 Descending FlightAware ADS-B
Mon 06:03:17 PM 25.8740 -80.4600 110° East 177 204 3,000 -600 Level FlightAware ADS-B
Mon 06:03:47 PM 25.8670 -80.4340 107° East 172 198 2,600 -667 Descending FlightAware ADS-B
Mon 06:04:02 PM 25.8620 -80.4240 119° Southeast 171 197 2,500 -750 Descending FlightAware ADS-B
Mon 06:04:27 PM 25.8520 -80.4050 120° Southeast 156 180 2,100 -982 Descending FlightAware ADS-B
Mon 06:04:57 PM 25.8410 -80.3840 120° Southeast 146 168 1,600 -873 Descending FlightAware ADS-B
Mon 06:05:22 PM 25.8330 -80.3680 119° Southeast 136 157 1,300 -764 Descending FlightAware ADS-B
Mon 06:05:52 PM 25.8250 -80.3520 119° Southeast 128 147 900 -700 Descending FlightAware ADS-B
Mon 06:06:22 PM 25.8160 -80.3350 120° Southeast 131 151 600 -655 Descending FlightAware ADS-B
Mon 06:06:47 PM 25.8080 -80.3190 119° Southeast 134 154 300 -720 Descending FlightAware ADS-B
Mon 06:07:17 PM 25.7980 -80.3010 122° Southeast 140 161 -600 Descending FlightAware ADS-B

Login

Don't have an account? Register now (free) for customized features, flight alerts, and more!